createdAt,value
2023-02-06T00:00:51.231Z,94172.00
2023-02-06T00:01:51.223Z,94172.00
2023-02-06T00:02:51.235Z,94172.00
2023-02-06T00:03:51.248Z,94174.00
2023-02-06T00:04:51.249Z,94176.00
2023-02-06T03:08:53.365Z,94178.00
2023-02-06T03:09:53.399Z,94180.00
2023-02-06T03:10:53.389Z,94180.00
2023-02-06T03:11:53.397Z,94178.00
2023-02-06T03:12:53.413Z,94181.00
2023-02-06T03:13:53.435Z,94181.00
2023-02-06T03:14:53.422Z,94185.00
2023-02-06T03:15:53.432Z,94191.00
2023-02-06T03:16:53.462Z,94191.00
2023-02-06T03:17:53.460Z,94191.00
2023-02-06T03:18:53.485Z,94191.00
2023-02-06T03:19:53.508Z,94191.00
2023-02-06T03:20:53.509Z,94191.00
2023-02-06T03:21:53.530Z,94193.00
2023-02-06T03:22:53.529Z,94191.00
2023-02-06T03:23:53.535Z,94191.00
2023-02-06T03:24:53.566Z,94191.00
2023-02-06T03:25:53.575Z,94189.00
2023-02-06T03:26:53.587Z,94191.00
2023-02-06T03:27:53.632Z,94191.00
2023-02-06T03:28:53.615Z,94193.00
2023-02-06T03:29:53.625Z,94193.00
2023-02-06T03:30:53.649Z,94189.00
2023-02-06T03:31:53.674Z,94185.00
2023-02-06T03:32:53.652Z,94185.00
2023-02-06T03:33:53.653Z,94185.00
2023-02-06T03:34:53.673Z,94185.00
2023-02-06T03:35:53.670Z,94187.00
2023-02-06T03:36:53.666Z,94189.00
2023-02-06T03:37:53.649Z,94187.00
2023-02-06T03:38:53.664Z,94191.00
2023-02-06T03:39:53.651Z,94191.00
2023-02-06T03:40:53.648Z,94189.00
2023-02-06T03:41:53.655Z,94183.00
2023-02-06T03:42:53.659Z,94183.00
2023-02-06T03:43:53.655Z,94180.00
2023-02-06T03:44:53.652Z,94181.00
2023-02-06T03:45:53.671Z,94178.00
2023-02-06T03:46:53.651Z,94181.00
2023-02-06T03:47:53.631Z,94181.00
2023-02-06T03:48:53.632Z,94180.00
2023-02-06T03:49:53.619Z,94178.00
2023-02-06T03:50:53.609Z,94180.00
2023-02-06T03:51:53.598Z,94181.00
2023-02-06T03:52:53.581Z,94181.00
2023-02-06T03:53:53.605Z,94183.00
2023-02-06T03:54:53.602Z,94183.00
2023-02-06T03:55:53.584Z,94185.00
2023-02-06T03:56:53.585Z,94187.00
2023-02-06T03:57:53.607Z,94189.00
2023-02-06T06:35:58.164Z,94195.00
2023-02-06T06:36:58.163Z,94195.00
2023-02-06T06:37:58.187Z,94195.00
2023-02-06T06:38:58.222Z,94193.00
2023-02-06T06:39:58.245Z,94191.00
2023-02-06T06:40:58.276Z,94193.00
2023-02-06T06:41:58.302Z,94189.00
2023-02-06T06:42:58.301Z,94189.00
2023-02-06T06:43:58.977Z,94189.00
2023-02-06T06:44:58.362Z,94191.00
2023-02-06T06:45:58.420Z,94189.00
2023-02-06T06:46:58.406Z,94185.00
2023-02-06T06:47:58.428Z,94189.00
2023-02-06T06:48:58.438Z,94187.00
2023-02-06T06:49:58.462Z,94185.00
2023-02-06T06:50:58.495Z,94189.00
2023-02-06T06:51:58.490Z,94185.00
2023-02-06T06:52:58.506Z,94185.00
2023-02-06T06:53:58.520Z,94183.00
2023-02-06T06:54:58.524Z,94181.00
2023-02-06T06:55:58.531Z,94181.00
2023-02-06T06:56:58.547Z,94181.00
2023-02-06T06:57:58.520Z,94181.00
2023-02-06T06:58:58.530Z,94183.00
2023-02-06T06:59:58.537Z,94189.00
2023-02-06T07:00:58.540Z,94187.00
2023-02-06T07:01:58.504Z,94189.00
2023-02-06T07:02:58.500Z,94189.00
2023-02-06T07:03:58.489Z,94191.00
2023-02-06T07:04:58.469Z,94193.00
2023-02-06T07:05:58.461Z,94193.00
2023-02-06T07:06:58.460Z,94193.00
2023-02-06T07:07:59.411Z,94195.00
2023-02-06T07:08:58.432Z,94191.00
2023-02-06T07:09:58.415Z,94189.00
2023-02-06T07:10:58.410Z,94191.00
2023-02-06T07:11:58.415Z,94195.00
2023-02-06T07:12:58.414Z,94197.00
2023-02-06T07:13:58.395Z,94201.00
2023-02-06T07:14:58.424Z,94203.00
2023-02-06T07:15:58.499Z,94199.00
2023-02-06T07:16:58.418Z,94199.00
2023-02-06T07:17:58.472Z,94197.00
2023-02-06T07:18:58.504Z,94195.00
2023-02-06T07:19:58.506Z,94195.00
2023-02-06T07:20:58.521Z,94199.00
2023-02-06T07:21:58.526Z,94201.00
2023-02-06T07:22:58.583Z,94199.00
2023-02-06T07:23:58.627Z,94199.00
2023-02-06T07:24:58.704Z,94197.00
2023-02-06T07:25:58.741Z,94197.00
2023-02-06T07:26:58.792Z,94193.00
2023-02-06T07:27:59.437Z,94197.00
2023-02-06T07:28:58.879Z,94197.00
2023-02-06T07:29:58.886Z,94199.00
2023-02-06T07:30:58.916Z,94201.00
2023-02-06T07:31:58.956Z,94203.00
2023-02-06T07:32:58.965Z,94201.00
2023-02-06T07:33:59.001Z,94199.00
2023-02-06T07:34:59.033Z,94201.00
2023-02-06T07:35:59.028Z,94205.00
2023-02-06T07:36:59.920Z,94207.00
2023-02-06T07:37:59.071Z,94205.00
2023-02-06T07:38:59.077Z,94201.00
2023-02-06T07:39:59.115Z,94199.00
2023-02-06T07:40:59.154Z,94199.00
2023-02-06T07:41:59.224Z,94195.00
2023-02-06T07:42:59.269Z,94191.00
2023-02-06T07:43:59.321Z,94189.00
2023-02-06T07:44:59.996Z,94189.00
2023-02-06T07:45:59.491Z,94191.00
2023-02-06T07:46:59.456Z,94189.00
2023-02-06T07:47:59.478Z,94191.00
2023-02-06T07:48:59.494Z,94189.00
2023-02-06T07:49:59.529Z,94189.00
2023-02-06T07:50:59.545Z,94191.00
2023-02-06T07:51:59.565Z,94191.00
2023-02-06T07:52:59.562Z,94191.00
2023-02-06T07:53:59.572Z,94189.00
2023-02-06T07:54:59.585Z,94189.00
2023-02-06T07:55:59.581Z,94191.00
2023-02-06T07:56:59.584Z,94189.00
2023-02-06T07:57:59.570Z,94191.00
2023-02-06T07:58:59.552Z,94187.00
2023-02-06T07:59:59.549Z,94185.00
2023-02-06T08:00:59.583Z,94183.00
2023-02-06T08:01:59.535Z,94180.00
2023-02-06T08:03:59.513Z,94176.00
2023-02-06T08:04:59.480Z,94176.00
2023-02-06T08:05:59.589Z,94178.00
2023-02-06T08:06:59.445Z,94176.00
2023-02-06T08:07:59.432Z,94174.00
2023-02-06T08:08:59.406Z,94176.00
2023-02-06T08:10:59.400Z,94172.00
2023-02-06T08:11:59.394Z,94174.00
2023-02-06T08:12:59.358Z,94174.00
2023-02-06T08:13:59.933Z,94176.00
2023-02-06T08:14:59.396Z,94176.00
2023-02-06T08:15:59.424Z,94176.00
2023-02-06T08:16:59.458Z,94176.00
2023-02-06T08:17:59.490Z,94170.00
2023-02-06T08:18:59.496Z,94174.00
2023-02-06T08:19:59.526Z,94172.00
2023-02-06T08:20:59.541Z,94170.00
2023-02-06T08:21:59.539Z,94166.00
2023-02-06T08:22:59.522Z,94164.00
2023-02-06T08:24:59.563Z,94162.00
2023-02-06T08:26:59.500Z,94158.00
2023-02-06T08:27:59.507Z,94154.00
2023-02-06T08:28:59.485Z,94156.00
2023-02-06T08:29:59.578Z,94158.00
2023-02-06T08:30:59.679Z,94158.00
2023-02-06T08:31:59.580Z,94158.00
2023-02-06T08:32:59.530Z,94158.00
2023-02-06T08:33:59.554Z,94158.00
2023-02-06T09:06:59.438Z,94162.00
2023-02-06T09:16:59.864Z,94140.00
2023-02-06T09:17:59.909Z,94144.00
2023-02-06T09:18:59.944Z,94140.00
2023-02-06T09:20:00.004Z,94140.00
2023-02-06T14:43:03.568Z,93709.00
2023-02-06T14:44:03.588Z,93709.00
2023-02-06T14:45:03.616Z,93707.00
2023-02-06T14:46:08.017Z,93703.00
2023-02-06T14:47:03.620Z,93701.00
2023-02-06T14:48:03.600Z,93703.00
2023-02-06T14:49:03.579Z,93703.00
2023-02-06T14:50:03.584Z,93698.00
2023-02-06T14:51:03.537Z,93694.00
2023-02-06T14:52:03.517Z,93692.00
2023-02-06T14:53:03.508Z,93688.00
2023-02-06T14:54:03.468Z,93688.00
2023-02-06T17:00:08.100Z,93686.00
2023-02-06T17:01:08.135Z,93684.00
2023-02-06T17:02:08.164Z,93688.00
2023-02-06T17:03:08.176Z,93686.00
2023-02-06T17:04:08.194Z,93686.00
2023-02-06T17:05:08.239Z,93692.00
2023-02-06T17:06:08.267Z,93692.00
2023-02-06T17:07:08.286Z,93692.00
2023-02-06T17:08:08.312Z,93698.00
2023-02-06T17:09:08.341Z,93701.00
2023-02-06T17:10:08.365Z,93703.00
2023-02-06T17:11:08.405Z,93709.00
2023-02-06T17:12:08.451Z,93705.00
2023-02-06T17:13:08.471Z,93707.00
2023-02-06T17:14:08.488Z,93711.00
2023-02-06T17:15:08.506Z,93711.00
2023-02-06T17:16:08.563Z,93707.00
2023-02-06T17:17:08.580Z,93707.00
2023-02-06T17:18:08.622Z,93711.00
2023-02-06T17:19:08.665Z,93711.00
2023-02-06T17:20:08.671Z,93711.00
2023-02-06T17:21:08.718Z,93717.00
2023-02-06T17:22:08.740Z,93725.00
2023-02-06T17:23:08.769Z,93729.00
2023-02-06T17:24:08.803Z,93729.00
2023-02-06T17:25:08.837Z,93735.00
2023-02-06T17:26:08.861Z,93735.00
2023-02-06T17:27:08.894Z,93739.00
2023-02-06T18:44:11.801Z,93788.00
2023-02-06T18:46:11.936Z,93780.00
2023-02-06T18:50:12.103Z,93780.00
2023-02-06T18:51:12.138Z,93782.00
2023-02-06T18:52:12.179Z,93780.00
2023-02-06T18:53:12.209Z,93786.00
2023-02-06T18:54:12.256Z,93788.00
2023-02-06T18:55:12.288Z,93790.00
2023-02-06T18:56:12.318Z,93786.00
2023-02-06T18:57:12.339Z,93790.00
2023-02-06T18:58:12.373Z,93788.00
2023-02-06T18:59:12.414Z,93786.00
2023-02-06T19:00:12.469Z,93788.00
2023-02-06T19:01:12.536Z,93788.00
2023-02-06T19:02:12.626Z,93790.00
2023-02-06T19:03:12.597Z,93788.00
2023-02-06T19:04:12.650Z,93784.00
2023-02-06T19:05:12.715Z,93786.00
2023-02-06T19:06:12.730Z,93788.00
2023-02-06T19:07:12.792Z,93788.00
2023-02-06T19:08:12.827Z,93790.00
2023-02-06T19:10:12.932Z,93790.00
2023-02-06T19:11:12.947Z,93790.00
2023-02-06T19:12:12.986Z,93790.00
2023-02-06T19:13:13.023Z,93786.00
2023-02-06T19:14:13.046Z,93788.00
2023-02-06T19:15:13.113Z,93790.00
2023-02-06T19:16:13.176Z,93790.00
2023-02-06T19:17:13.193Z,93792.00
2023-02-06T19:18:13.239Z,93792.00
2023-02-06T19:19:13.305Z,93790.00
2023-02-06T19:20:13.331Z,93792.00
2023-02-06T19:21:13.361Z,93788.00
2023-02-06T19:22:13.398Z,93788.00
2023-02-06T19:23:13.437Z,93788.00
2023-02-06T19:24:13.498Z,93784.00
2023-02-06T19:25:14.743Z,93786.00
2023-02-06T19:26:13.586Z,93790.00
2023-02-06T19:27:13.624Z,93792.00
2023-02-06T19:28:13.747Z,93790.00
2023-02-06T19:29:13.706Z,93792.00
2023-02-06T19:30:13.760Z,93792.00
2023-02-06T19:31:13.856Z,93794.00
2023-02-06T19:32:13.840Z,93794.00
2023-02-06T19:33:13.856Z,93794.00
2023-02-06T19:34:13.845Z,93798.00
2023-02-06T19:35:13.890Z,93798.00
2023-02-06T19:36:13.923Z,93800.00
2023-02-06T19:37:13.997Z,93801.00
2023-02-06T19:38:14.008Z,93803.00
2023-02-06T19:39:14.058Z,93805.00
2023-02-06T19:40:14.040Z,93805.00
2023-02-06T19:41:14.055Z,93809.00
2023-02-06T19:42:14.058Z,93811.00
2023-02-06T19:43:14.080Z,93807.00
2023-02-06T19:44:14.072Z,93807.00
2023-02-06T19:45:14.110Z,93809.00
2023-02-06T19:46:14.150Z,93809.00
2023-02-06T19:47:14.166Z,93811.00
2023-02-06T19:48:14.181Z,93807.00
2023-02-06T19:49:14.184Z,93807.00
2023-02-06T19:50:14.542Z,93807.00
2023-02-06T19:51:14.210Z,93809.00
2023-02-06T19:52:14.233Z,93805.00
2023-02-06T19:53:16.891Z,93807.00
2023-02-06T19:54:14.185Z,93807.00
2023-02-06T19:55:14.202Z,93807.00
2023-02-06T19:56:14.176Z,93809.00
2023-02-06T19:57:14.160Z,93811.00
2023-02-06T19:58:14.162Z,93811.00
2023-02-06T19:59:14.154Z,93811.00
2023-02-06T20:00:14.152Z,93813.00
2023-02-06T20:01:14.181Z,93815.00
2023-02-06T20:02:14.139Z,93817.00
2023-02-06T20:03:14.159Z,93815.00
2023-02-06T20:04:14.134Z,93817.00
2023-02-06T20:05:14.133Z,93821.00
2023-02-06T20:06:14.116Z,93827.00
2023-02-06T20:07:14.113Z,93827.00
2023-02-06T20:08:14.103Z,93829.00
2023-02-06T20:09:14.090Z,93833.00
2023-02-06T20:10:14.073Z,93835.00
2023-02-06T20:11:14.100Z,93837.00
2023-02-06T20:12:14.061Z,93833.00
2023-02-06T20:13:14.067Z,93833.00
2023-02-06T20:14:14.044Z,93845.00
2023-02-06T20:15:14.033Z,93845.00
2023-02-06T20:16:14.045Z,93843.00
2023-02-06T20:17:14.036Z,93843.00
2023-02-06T20:18:14.024Z,93850.00
2023-02-06T20:19:14.023Z,93848.00
2023-02-06T20:20:14.019Z,93848.00
2023-02-06T20:21:14.013Z,93852.00
2023-02-06T20:22:14.007Z,93847.00
2023-02-06T20:23:14.011Z,93850.00
2023-02-06T20:24:14.003Z,93848.00
2023-02-06T20:25:14.005Z,93850.00
2023-02-06T20:26:13.991Z,93852.00
2023-02-06T20:27:13.978Z,93856.00
2023-02-06T20:28:13.987Z,93847.00
2023-02-06T20:29:13.965Z,93854.00
2023-02-06T20:30:13.973Z,93852.00
2023-02-06T20:31:14.083Z,93848.00
2023-02-06T20:32:13.949Z,93858.00
2023-02-06T20:33:13.961Z,93856.00
2023-02-06T20:34:13.937Z,93852.00
2023-02-06T20:35:13.953Z,93850.00
2023-02-06T20:36:13.953Z,93856.00
2023-02-06T20:37:13.935Z,93858.00
2023-02-06T20:38:13.937Z,93858.00
2023-02-06T20:39:13.935Z,93852.00
2023-02-06T20:40:13.928Z,93854.00
2023-02-06T20:41:13.912Z,93854.00
2023-02-06T20:42:13.929Z,93854.00
2023-02-06T20:43:13.913Z,93856.00
2023-02-06T20:44:13.913Z,93856.00
2023-02-06T20:45:13.897Z,93856.00
2023-02-06T20:46:13.945Z,93862.00
2023-02-06T20:47:13.886Z,93862.00
2023-02-06T20:48:13.881Z,93860.00
2023-02-06T20:49:13.863Z,93860.00
2023-02-06T20:50:13.862Z,93862.00
2023-02-06T20:51:13.876Z,93860.00
2023-02-06T20:52:13.858Z,93860.00
2023-02-06T20:53:13.844Z,93860.00
2023-02-06T20:54:13.873Z,93860.00
2023-02-06T20:55:13.848Z,93870.00
2023-02-06T20:56:13.829Z,93870.00
2023-02-06T20:57:13.823Z,93874.00
2023-02-06T20:58:13.802Z,93876.00
2023-02-06T20:59:13.804Z,93878.00
2023-02-06T21:00:13.812Z,93878.00
2023-02-06T21:01:13.855Z,93886.00
2023-02-06T21:02:13.800Z,93890.00
2023-02-06T21:03:13.777Z,93892.00
2023-02-06T21:04:13.768Z,93899.00
2023-02-06T21:05:13.755Z,93903.00
2023-02-06T21:06:13.743Z,93903.00
2023-02-06T21:07:13.742Z,93907.00
2023-02-06T21:08:13.717Z,93911.00
2023-02-06T21:09:13.703Z,93915.00
2023-02-06T21:10:13.695Z,93915.00
2023-02-06T21:11:13.672Z,93919.00
2023-02-06T21:12:13.674Z,93915.00
2023-02-06T21:13:13.669Z,93919.00
2023-02-06T21:14:13.644Z,93923.00
2023-02-06T21:15:13.645Z,93923.00
2023-02-06T21:16:13.766Z,93923.00
2023-02-06T21:17:13.611Z,93927.00
2023-02-06T21:18:13.581Z,93927.00
2023-02-06T21:19:13.592Z,93925.00
2023-02-06T21:20:13.576Z,93927.00
2023-02-06T21:21:13.556Z,93923.00
2023-02-06T21:22:13.547Z,93923.00
2023-02-06T21:23:13.531Z,93923.00
2023-02-06T21:24:13.527Z,93929.00
2023-02-06T21:25:13.520Z,93931.00
2023-02-06T21:26:13.509Z,93933.00
2023-02-06T21:27:13.502Z,93931.00
2023-02-06T21:28:13.511Z,93931.00
2023-02-06T21:29:13.480Z,93933.00
2023-02-06T21:30:13.472Z,93927.00
2023-02-06T21:31:13.507Z,93925.00
2023-02-06T21:32:14.545Z,93925.00
2023-02-06T21:33:13.439Z,93925.00
2023-02-06T21:34:13.447Z,93925.00
2023-02-06T21:35:13.417Z,93919.00
2023-02-06T21:36:13.414Z,93915.00
2023-02-06T21:37:13.421Z,93911.00
2023-02-06T21:38:13.395Z,93913.00
2023-02-06T21:39:13.385Z,93915.00
2023-02-06T21:40:13.366Z,93911.00
2023-02-06T21:41:13.359Z,93909.00
2023-02-06T21:42:14.266Z,93905.00
2023-02-06T21:43:13.353Z,93903.00
2023-02-06T21:44:13.344Z,93907.00
2023-02-06T21:45:13.332Z,93909.00
2023-02-06T21:46:13.404Z,93915.00
2023-02-06T21:47:13.308Z,93919.00
2023-02-06T21:48:13.306Z,93921.00
2023-02-06T21:49:13.291Z,93919.00
2023-02-06T21:50:13.281Z,93923.00
2023-02-06T21:51:13.292Z,93927.00
2023-02-06T21:52:13.278Z,93931.00
2023-02-06T21:53:13.271Z,93937.00
2023-02-06T21:54:13.266Z,93937.00
2023-02-06T21:55:13.257Z,93939.00
2023-02-06T21:56:13.244Z,93937.00
2023-02-06T21:57:13.256Z,93935.00
2023-02-06T23:08:12.551Z,93984.00
2023-02-06T23:09:12.536Z,93986.00
2023-02-06T23:10:12.532Z,93982.00
2023-02-06T23:11:12.527Z,93982.00
2023-02-06T23:12:12.525Z,93984.00
2023-02-06T23:13:12.511Z,93982.00
2023-02-06T23:14:12.516Z,93980.00
2023-02-06T23:15:12.505Z,93982.00
2023-02-06T23:16:12.533Z,93984.00
2023-02-06T23:17:12.477Z,93987.00
2023-02-06T23:18:12.477Z,93989.00
2023-02-06T23:19:12.476Z,93986.00
2023-02-06T23:20:12.472Z,93986.00
2023-02-06T23:21:12.477Z,93984.00
2023-02-06T23:22:12.457Z,93982.00
2023-02-06T23:23:12.462Z,93982.00
2023-02-06T23:24:12.482Z,93980.00
2023-02-06T23:25:12.451Z,93978.00
2023-02-06T23:26:12.448Z,93980.00
2023-02-06T23:27:12.443Z,93976.00
2023-02-06T23:28:12.543Z,93982.00
2023-02-06T23:29:12.451Z,93986.00
2023-02-06T23:30:12.463Z,93991.00
2023-02-06T23:31:12.456Z,93995.00
2023-02-06T23:32:12.440Z,94001.00
2023-02-06T23:33:12.433Z,94003.00
2023-02-06T23:34:12.436Z,94007.00
2023-02-06T23:35:12.415Z,94011.00
2023-02-06T23:36:12.419Z,94017.00
2023-02-06T23:37:12.415Z,94017.00
2023-02-06T23:38:12.386Z,94019.00
2023-02-06T23:39:12.382Z,94021.00
2023-02-06T23:40:12.375Z,94023.00
2023-02-06T23:41:12.360Z,94029.00
2023-02-06T23:42:12.346Z,94035.00
2023-02-06T23:43:12.354Z,94041.00
2023-02-06T23:44:12.337Z,94042.00
2023-02-06T23:45:12.328Z,94042.00
2023-02-06T23:47:12.290Z,94041.00
2023-02-06T23:48:12.299Z,94037.00
2023-02-06T23:49:12.284Z,94037.00
